sensor_id;sensor_type;location;lat;lon;timestamp;pressure;altitude;pressure_sealevel;temperature;humidity
22743;BME280;11538;48.884;8.696;2023-03-01T00:01:40;99562.03;;;-0.46;87.87
22743;BME280;11538;48.884;8.696;2023-03-01T00:04:07;99569.00;;;-0.38;87.35
22743;BME280;11538;48.884;8.696;2023-03-01T00:06:35;99560.78;;;-0.36;87.08
22743;BME280;11538;48.884;8.696;2023-03-01T00:09:04;99563.25;;;-0.41;87.13
22743;BME280;11538;48.884;8.696;2023-03-01T00:11:32;99558.53;;;-0.39;87.22
22743;BME280;11538;48.884;8.696;2023-03-01T00:14:01;99565.88;;;-0.28;86.29
22743;BME280;11538;48.884;8.696;2023-03-01T00:16:33;99564.66;;;-0.32;85.87
22743;BME280;11538;48.884;8.696;2023-03-01T00:19:02;99560.78;;;-0.36;86.06
22743;BME280;11538;48.884;8.696;2023-03-01T00:21:29;99564.50;;;-0.44;86.65
22743;BME280;11538;48.884;8.696;2023-03-01T00:23:57;99559.81;;;-0.55;87.46
22743;BME280;11538;48.884;8.696;2023-03-01T00:26:26;99568.63;;;-0.62;87.50
22743;BME280;11538;48.884;8.696;2023-03-01T00:28:54;99566.16;;;-0.63;87.74
22743;BME280;11538;48.884;8.696;2023-03-01T00:31:28;99567.59;;;-0.67;87.98
22743;BME280;11538;48.884;8.696;2023-03-01T00:33:59;99554.47;;;-0.69;88.68
22743;BME280;11538;48.884;8.696;2023-03-01T00:36:30;99553.69;;;-0.83;88.82
22743;BME280;11538;48.884;8.696;2023-03-01T00:39:02;99563.31;;;-0.82;89.42
22743;BME280;11538;48.884;8.696;2023-03-01T00:41:30;99564.13;;;-0.75;88.79
22743;BME280;11538;48.884;8.696;2023-03-01T00:43:57;99563.50;;;-0.83;89.49
22743;BME280;11538;48.884;8.696;2023-03-01T00:46:26;99566.16;;;-0.90;89.95
22743;BME280;11538;48.884;8.696;2023-03-01T00:48:54;99561.66;;;-0.83;89.54
22743;BME280;11538;48.884;8.696;2023-03-01T00:51:25;99561.47;;;-0.88;89.89
22743;BME280;11538;48.884;8.696;2023-03-01T00:53:56;99563.28;;;-0.68;88.87
22743;BME280;11538;48.884;8.696;2023-03-01T00:56:24;99560.00;;;-0.70;88.50
22743;BME280;11538;48.884;8.696;2023-03-01T00:58:54;99555.50;;;-0.83;89.35
22743;BME280;11538;48.884;8.696;2023-03-01T01:01:24;99551.00;;;-0.83;89.31
22743;BME280;11538;48.884;8.696;2023-03-01T01:03:56;99555.69;;;-0.78;89.67
22743;BME280;11538;48.884;8.696;2023-03-01T01:06:37;99552.22;;;-0.65;88.88
22743;BME280;11538;48.884;8.696;2023-03-01T01:09:06;99550.16;;;-0.63;88.50
22743;BME280;11538;48.884;8.696;2023-03-01T01:11:35;99552.84;;;-0.56;88.92
22743;BME280;11538;48.884;8.696;2023-03-01T01:14:03;99554.88;;;-0.72;89.46
22743;BME280;11538;48.884;8.696;2023-03-01T01:16:30;99557.34;;;-0.77;89.83
22743;BME280;11538;48.884;8.696;2023-03-01T01:18:57;99554.69;;;-0.77;89.61
22743;BME280;11538;48.884;8.696;2023-03-01T01:21:26;99546.28;;;-0.81;90.08
22743;BME280;11538;48.884;8.696;2023-03-01T01:23:54;99548.72;;;-0.79;89.60
22743;BME280;11538;48.884;8.696;2023-03-01T01:26:23;99550.19;;;-0.77;89.22
22743;BME280;11538;48.884;8.696;2023-03-01T01:28:51;99548.34;;;-0.83;89.62
22743;BME280;11538;48.884;8.696;2023-03-01T01:31:20;99546.91;;;-0.85;89.86
22743;BME280;11538;48.884;8.696;2023-03-01T01:33:47;99544.44;;;-0.87;89.99
22743;BME280;11538;48.884;8.696;2023-03-01T01:36:17;99538.50;;;-0.89;90.04
22743;BME280;11538;48.884;8.696;2023-03-01T01:38:45;99530.31;;;-1.01;90.76
22743;BME280;11538;48.884;8.696;2023-03-01T01:41:13;99525.59;;;-0.92;90.82
22743;BME280;11538;48.884;8.696;2023-03-01T01:43:45;99529.09;;;-0.85;90.38
22743;BME280;11538;48.884;8.696;2023-03-01T01:46:32;99528.88;;;-0.77;90.35
22743;BME280;11538;48.884;8.696;2023-03-01T01:49:05;99527.25;;;-0.91;90.53
22743;BME280;11538;48.884;8.696;2023-03-01T01:51:42;99524.97;;;-0.88;90.57
22743;BME280;11538;48.884;8.696;2023-03-01T01:54:17;99523.53;;;-0.83;89.80
22743;BME280;11538;48.884;8.696;2023-03-01T01:56:55;99525.19;;;-0.96;90.32
22743;BME280;11538;48.884;8.696;2023-03-01T01:59:25;99517.22;;;-1.02;91.01
22743;BME280;11538;48.884;8.696;2023-03-01T02:01:53;99515.16;;;-1.07;91.59
22743;BME280;11538;48.884;8.696;2023-03-01T02:04:21;99510.66;;;-1.07;91.73
22743;BME280;11538;48.884;8.696;2023-03-01T02:06:59;99508.59;;;-1.05;91.52
22743;BME280;11538;48.884;8.696;2023-03-01T02:09:28;99512.06;;;-1.04;91.40
22743;BME280;11538;48.884;8.696;2023-03-01T02:11:57;99499.19;;;-1.14;92.01
22743;BME280;11538;48.884;8.696;2023-03-01T02:14:24;99498.59;;;-1.16;92.86
22743;BME280;11538;48.884;8.696;2023-03-01T02:16:52;99495.91;;;-1.16;92.64
22743;BME280;11538;48.884;8.696;2023-03-01T02:22:29;99489.56;;;-1.22;92.81
22743;BME280;11538;48.884;8.696;2023-03-01T02:30:48;99479.75;;;-1.21;92.47
22743;BME280;11538;48.884;8.696;2023-03-01T02:33:37;99476.84;;;-1.33;93.00
22743;BME280;11538;48.884;8.696;2023-03-01T02:36:11;99467.66;;;-1.30;93.04
22743;BME280;11538;48.884;8.696;2023-03-01T02:38:48;99467.66;;;-1.30;92.61
22743;BME280;11538;48.884;8.696;2023-03-01T02:41:20;99462.53;;;-1.25;92.64
22743;BME280;11538;48.884;8.696;2023-03-01T02:43:49;99461.91;;;-1.14;92.04
22743;BME280;11538;48.884;8.696;2023-03-01T02:46:21;99453.31;;;-1.16;92.16
22743;BME280;11538;48.884;8.696;2023-03-01T02:48:54;99454.16;;;-1.22;92.51
22743;BME280;11538;48.884;8.696;2023-03-01T02:55:11;99454.16;;;-1.22;92.79
22743;BME280;11538;48.884;8.696;2023-03-01T02:57:43;99455.59;;;-1.26;92.80
22743;BME280;11538;48.884;8.696;2023-03-01T03:00:19;99453.94;;;-1.34;92.50
22743;BME280;11538;48.884;8.696;2023-03-01T03:02:50;99449.22;;;-1.45;93.01
22743;BME280;11538;48.884;8.696;2023-03-01T03:05:30;99442.88;;;-1.44;93.56
22743;BME280;11538;48.884;8.696;2023-03-01T03:08:01;99446.16;;;-1.56;94.48
22743;BME280;11538;48.884;8.696;2023-03-01T03:10:36;99447.56;;;-1.60;95.40
22743;BME280;11538;48.884;8.696;2023-03-01T03:13:10;99448.78;;;-1.76;96.56
22743;BME280;11538;48.884;8.696;2023-03-01T03:15:39;99442.84;;;-1.78;96.84
22743;BME280;11538;48.884;8.696;2023-03-01T03:18:11;99445.72;;;-1.59;96.30
22743;BME280;11538;48.884;8.696;2023-03-01T03:20:40;99445.13;;;-1.41;94.90
22743;BME280;11538;48.884;8.696;2023-03-01T03:23:07;99442.06;;;-1.31;93.70
22743;BME280;11538;48.884;8.696;2023-03-01T03:25:34;99438.56;;;-1.32;93.36
22743;BME280;11538;48.884;8.696;2023-03-01T03:28:05;99445.75;;;-1.39;93.29
22743;BME280;11538;48.884;8.696;2023-03-01T03:30:39;99445.53;;;-1.44;94.37
22743;BME280;11538;48.884;8.696;2023-03-01T03:33:09;99435.50;;;-1.49;94.79
22743;BME280;11538;48.884;8.696;2023-03-01T03:35:49;99427.72;;;-1.57;94.80
22743;BME280;11538;48.884;8.696;2023-03-01T03:38:19;99428.72;;;-1.58;95.02
22743;BME280;11538;48.884;8.696;2023-03-01T03:41:07;99424.66;;;-1.54;94.90
22743;BME280;11538;48.884;8.696;2023-03-01T03:43:37;99431.81;;;-1.62;95.21
22743;BME280;11538;48.884;8.696;2023-03-01T03:46:05;99429.16;;;-1.55;95.37
22743;BME280;11538;48.884;8.696;2023-03-01T03:48:40;99419.75;;;-1.51;95.24
22743;BME280;11538;48.884;8.696;2023-03-01T03:51:15;99424.63;;;-1.41;94.33
22743;BME280;11538;48.884;8.696;2023-03-01T03:53:44;99416.25;;;-1.38;94.28
22743;BME280;11538;48.884;8.696;2023-03-01T03:56:12;99414.63;;;-1.32;94.13
22743;BME280;11538;48.884;8.696;2023-03-01T03:58:39;99410.94;;;-1.24;93.66
22743;BME280;11538;48.884;8.696;2023-03-01T04:01:06;99410.13;;;-1.18;93.56
22743;BME280;11538;48.884;8.696;2023-03-01T04:03:33;99406.84;;;-1.20;93.30
22743;BME280;11538;48.884;8.696;2023-03-01T04:06:02;99406.81;;;-1.34;94.10
22743;BME280;11538;48.884;8.696;2023-03-01T04:08:30;99399.88;;;-1.35;94.72
22743;BME280;11538;48.884;8.696;2023-03-01T04:11:01;99404.81;;;-1.31;93.98
22743;BME280;11538;48.884;8.696;2023-03-01T04:13:49;99397.44;;;-1.36;94.50
22743;BME280;11538;48.884;8.696;2023-03-01T04:16:16;99388.81;;;-1.25;94.01
22743;BME280;11538;48.884;8.696;2023-03-01T04:18:44;99392.28;;;-1.11;93.29
22743;BME280;11538;48.884;8.696;2023-03-01T04:21:12;99394.91;;;-1.04;92.91
22743;BME280;11538;48.884;8.696;2023-03-01T04:23:40;99391.03;;;-1.01;93.16
22743;BME280;11538;48.884;8.696;2023-03-01T04:26:07;99391.22;;;-1.03;92.98
22743;BME280;11538;48.884;8.696;2023-03-01T04:28:42;99399.03;;;-1.01;93.18
22743;BME280;11538;48.884;8.696;2023-03-01T04:31:15;99388.56;;;-0.96;92.68
22743;BME280;11538;48.884;8.696;2023-03-01T04:33:53;99395.09;;;-0.99;92.62
22743;BME280;11538;48.884;8.696;2023-03-01T04:36:24;99387.53;;;-0.95;92.33
22743;BME280;11538;48.884;8.696;2023-03-01T04:38:52;99394.09;;;-0.98;92.55
22743;BME280;11538;48.884;8.696;2023-03-01T04:41:23;99390.59;;;-0.92;92.60
22743;BME280;11538;48.884;8.696;2023-03-01T04:43:53;99390.34;;;-0.83;92.23
22743;BME280;11538;48.884;8.696;2023-03-01T04:46:21;99388.53;;;-0.83;92.19
22743;BME280;11538;48.884;8.696;2023-03-01T04:48:49;99390.81;;;-0.93;92.52
22743;BME280;11538;48.884;8.696;2023-03-01T04:51:16;99382.81;;;-0.93;92.69
22743;BME280;11538;48.884;8.696;2023-03-01T04:53:43;99388.94;;;-0.86;92.52
22743;BME280;11538;48.884;8.696;2023-03-01T04:56:11;99391.78;;;-0.81;92.18
22743;BME280;11538;48.884;8.696;2023-03-01T04:58:40;99395.06;;;-0.79;92.42
22743;BME280;11538;48.884;8.696;2023-03-01T05:01:15;99397.72;;;-0.79;92.33
22743;BME280;11538;48.884;8.696;2023-03-01T05:03:45;99393.38;;;-0.73;92.90
22743;BME280;11538;48.884;8.696;2023-03-01T05:06:13;99387.03;;;-0.65;92.64
22743;BME280;11538;48.884;8.696;2023-03-01T05:08:41;99392.53;;;-0.60;92.35
22743;BME280;11538;48.884;8.696;2023-03-01T05:11:10;99386.34;;;-0.54;92.58
22743;BME280;11538;48.884;8.696;2023-03-01T05:13:38;99383.31;;;-0.64;93.49
22743;BME280;11538;48.884;8.696;2023-03-01T05:16:07;99394.41;;;-0.61;93.60
22743;BME280;11538;48.884;8.696;2023-03-01T05:18:38;99389.25;;;-0.55;93.18
22743;BME280;11538;48.884;8.696;2023-03-01T05:21:09;99385.34;;;-0.53;93.01
22743;BME280;11538;48.884;8.696;2023-03-01T05:23:37;99385.75;;;-0.49;92.74
22743;BME280;11538;48.884;8.696;2023-03-01T05:26:07;99381.81;;;-0.40;92.67
22743;BME280;11538;48.884;8.696;2023-03-01T05:28:48;99390.41;;;-0.38;91.66
22743;BME280;11538;48.884;8.696;2023-03-01T05:31:15;99385.06;;;-0.38;92.10
22743;BME280;11538;48.884;8.696;2023-03-01T05:33:42;99387.50;;;-0.36;92.12
22743;BME280;11538;48.884;8.696;2023-03-01T05:36:10;99387.75;;;-0.45;93.31
22743;BME280;11538;48.884;8.696;2023-03-01T05:38:37;99381.88;;;-0.53;94.20
22743;BME280;11538;48.884;8.696;2023-03-01T05:41:04;99380.22;;;-0.54;94.59
22743;BME280;11538;48.884;8.696;2023-03-01T05:43:31;99383.75;;;-0.61;95.68
22743;BME280;11538;48.884;8.696;2023-03-01T05:46:00;99380.88;;;-0.66;95.94
22743;BME280;11538;48.884;8.696;2023-03-01T05:48:27;99386.59;;;-0.62;96.09
22743;BME280;11538;48.884;8.696;2023-03-01T05:50:54;99387.63;;;-0.56;95.96
22743;BME280;11538;48.884;8.696;2023-03-01T05:53:21;99383.69;;;-0.54;95.21
22743;BME280;11538;48.884;8.696;2023-03-01T05:55:48;99386.34;;;-0.54;95.20
22743;BME280;11538;48.884;8.696;2023-03-01T05:58:19;99388.41;;;-0.56;95.44
22743;BME280;11538;48.884;8.696;2023-03-01T06:00:48;99385.75;;;-0.56;94.63
22743;BME280;11538;48.884;8.696;2023-03-01T06:03:17;99381.69;;;-0.58;94.76
22743;BME280;11538;48.884;8.696;2023-03-01T06:05:44;99393.13;;;-0.58;94.75
22743;BME280;11538;48.884;8.696;2023-03-01T06:08:13;99384.94;;;-0.56;95.54
22743;BME280;11538;48.884;8.696;2023-03-01T06:10:40;99390.06;;;-0.55;95.32
22743;BME280;11538;48.884;8.696;2023-03-01T06:13:08;99391.09;;;-0.56;94.52
22743;BME280;11538;48.884;8.696;2023-03-01T06:15:35;99383.69;;;-0.54;93.54
22743;BME280;11538;48.884;8.696;2023-03-01T06:18:02;99381.63;;;-0.52;92.49
22743;BME280;11538;48.884;8.696;2023-03-01T06:20:29;99389.63;;;-0.52;91.71
22743;BME280;11538;48.884;8.696;2023-03-01T06:22:56;99379.56;;;-0.50;91.10
22743;BME280;11538;48.884;8.696;2023-03-01T06:25:26;99388.19;;;-0.48;90.77
22743;BME280;11538;48.884;8.696;2023-03-01T06:27:56;99386.78;;;-0.50;90.54
22743;BME280;11538;48.884;8.696;2023-03-01T06:30:25;99393.94;;;-0.51;90.54
22743;BME280;11538;48.884;8.696;2023-03-01T06:32:53;99390.66;;;-0.46;90.46
22743;BME280;11538;48.884;8.696;2023-03-01T06:35:27;99393.25;;;-0.39;89.93
22743;BME280;11538;48.884;8.696;2023-03-01T06:37:58;99391.44;;;-0.39;89.49
22743;BME280;11538;48.884;8.696;2023-03-01T06:40:26;99389.97;;;-0.35;88.84
22743;BME280;11538;48.884;8.696;2023-03-01T06:42:53;99393.00;;;-0.31;88.53
22743;BME280;11538;48.884;8.696;2023-03-01T06:45:24;99390.16;;;-0.30;88.66
22743;BME280;11538;48.884;8.696;2023-03-01T06:47:51;99391.97;;;-0.30;88.25
22743;BME280;11538;48.884;8.696;2023-03-01T06:50:18;99387.47;;;-0.30;88.54
22743;BME280;11538;48.884;8.696;2023-03-01T06:52:45;99388.47;;;-0.24;88.10
22743;BME280;11538;48.884;8.696;2023-03-01T06:55:12;99388.50;;;-0.31;87.89
22743;BME280;11538;48.884;8.696;2023-03-01T06:57:40;99379.88;;;-0.26;87.87
22743;BME280;11538;48.884;8.696;2023-03-01T07:00:07;99372.47;;;-0.24;87.93
22743;BME280;11538;48.884;8.696;2023-03-01T07:02:35;99360.78;;;-0.23;87.50
22743;BME280;11538;48.884;8.696;2023-03-01T07:05:02;99367.91;;;-0.17;87.30
22743;BME280;11538;48.884;8.696;2023-03-01T07:07:30;99367.06;;;-0.10;86.30
22743;BME280;11538;48.884;8.696;2023-03-01T07:09:56;99365.41;;;-0.11;85.90
22743;BME280;11538;48.884;8.696;2023-03-01T07:12:23;99360.09;;;-0.11;85.12
22743;BME280;11538;48.884;8.696;2023-03-01T07:14:50;99357.59;;;-0.06;84.84
22743;BME280;11538;48.884;8.696;2023-03-01T07:17:19;99348.91;;;0.05;84.62
22743;BME280;11538;48.884;8.696;2023-03-01T07:19:46;99349.53;;;0.07;84.38
22743;BME280;11538;48.884;8.696;2023-03-01T07:22:13;99352.78;;;0.09;83.93
22743;BME280;11538;48.884;8.696;2023-03-01T07:24:42;99353.38;;;0.11;83.72
22743;BME280;11538;48.884;8.696;2023-03-01T07:27:09;99356.06;;;0.11;83.96
22743;BME280;11538;48.884;8.696;2023-03-01T07:29:39;99353.75;;;0.15;83.41
22743;BME280;11538;48.884;8.696;2023-03-01T07:32:06;99343.03;;;0.22;83.54
22743;BME280;11538;48.884;8.696;2023-03-01T07:34:33;99339.06;;;0.31;82.32
22743;BME280;11538;48.884;8.696;2023-03-01T07:37:00;99347.00;;;0.38;81.39
22743;BME280;11538;48.884;8.696;2023-03-01T07:39:27;99349.47;;;0.39;81.08
22743;BME280;11538;48.884;8.696;2023-03-01T07:41:54;99354.41;;;0.36;81.13
22743;BME280;11538;48.884;8.696;2023-03-01T07:44:24;99353.00;;;0.33;81.49
22743;BME280;11538;48.884;8.696;2023-03-01T07:46:51;99351.97;;;0.34;81.21
22743;BME280;11538;48.884;8.696;2023-03-01T07:49:22;99351.84;;;0.48;80.90
22743;BME280;11538;48.884;8.696;2023-03-01T07:51:49;99349.81;;;0.68;80.04
22743;BME280;11538;48.884;8.696;2023-03-01T07:54:16;99349.97;;;0.73;79.14
22743;BME280;11538;48.884;8.696;2023-03-01T07:56:44;99347.25;;;0.80;79.09
22743;BME280;11538;48.884;8.696;2023-03-01T07:59:11;99344.44;;;0.94;77.51
22743;BME280;11538;48.884;8.696;2023-03-01T08:01:38;99341.97;;;0.92;77.76
22743;BME280;11538;48.884;8.696;2023-03-01T08:04:07;99335.38;;;0.95;77.53
22743;BME280;11538;48.884;8.696;2023-03-01T08:06:35;99335.13;;;0.96;77.23
22743;BME280;11538;48.884;8.696;2023-03-01T08:09:05;99328.09;;;1.02;77.26
22743;BME280;11538;48.884;8.696;2023-03-01T08:11:32;99332.41;;;1.03;76.56
22743;BME280;11538;48.884;8.696;2023-03-01T08:13:59;99328.16;;;1.14;76.05
22743;BME280;11538;48.884;8.696;2023-03-01T08:16:26;99323.34;;;1.23;75.80
22743;BME280;11538;48.884;8.696;2023-03-01T08:18:53;99323.41;;;1.35;75.49
22743;BME280;11538;48.884;8.696;2023-03-01T08:21:23;99319.50;;;1.49;74.49
22743;BME280;11538;48.884;8.696;2023-03-01T08:23:49;99320.69;;;1.53;74.24
22743;BME280;11538;48.884;8.696;2023-03-01T08:26:21;99325.28;;;1.77;73.56
22743;BME280;11538;48.884;8.696;2023-03-01T08:28:49;99322.91;;;1.99;73.05
22743;BME280;11538;48.884;8.696;2023-03-01T08:31:19;99322.22;;;2.15;72.00
22743;BME280;11538;48.884;8.696;2023-03-01T08:33:51;99323.28;;;2.38;70.83
22743;BME280;11538;48.884;8.696;2023-03-01T08:36:28;99323.19;;;2.57;70.19
22743;BME280;11538;48.884;8.696;2023-03-01T08:38:56;99312.94;;;2.77;68.69
22743;BME280;11538;48.884;8.696;2023-03-01T08:41:24;99315.38;;;2.79;68.08
22743;BME280;11538;48.884;8.696;2023-03-01T08:43:51;99316.78;;;2.82;67.94
22743;BME280;11538;48.884;8.696;2023-03-01T08:46:19;99311.25;;;3.00;66.90
22743;BME280;11538;48.884;8.696;2023-03-01T08:48:46;99322.69;;;2.96;66.36
22743;BME280;11538;48.884;8.696;2023-03-01T08:51:17;99310.78;;;3.03;66.30
22743;BME280;11538;48.884;8.696;2023-03-01T08:53:47;99308.84;;;3.28;65.66
22743;BME280;11538;48.884;8.696;2023-03-01T08:56:16;99305.56;;;3.38;65.11
22743;BME280;11538;48.884;8.696;2023-03-01T08:58:45;99307.38;;;3.49;64.62
22743;BME280;11538;48.884;8.696;2023-03-01T09:01:16;99295.09;;;3.53;64.60
22743;BME280;11538;48.884;8.696;2023-03-01T09:03:44;99295.38;;;3.69;64.66
22743;BME280;11538;48.884;8.696;2023-03-01T09:06:13;99291.91;;;3.85;63.40
22743;BME280;11538;48.884;8.696;2023-03-01T09:08:46;99295.81;;;3.94;63.24
22743;BME280;11538;48.884;8.696;2023-03-01T09:11:17;99294.06;;;4.17;62.45
22743;BME280;11538;48.884;8.696;2023-03-01T09:13:46;99291.66;;;4.38;61.85
22743;BME280;11538;48.884;8.696;2023-03-01T09:16:17;99293.75;;;4.53;61.59
22743;BME280;11538;48.884;8.696;2023-03-01T09:18:48;99281.19;;;4.76;60.77
22743;BME280;11538;48.884;8.696;2023-03-01T09:21:17;99280.47;;;4.86;60.48
22743;BME280;11538;48.884;8.696;2023-03-01T09:23:57;99281.06;;;4.88;60.03
22743;BME280;11538;48.884;8.696;2023-03-01T09:26:25;99276.47;;;5.10;59.94
22743;BME280;11538;48.884;8.696;2023-03-01T09:28:54;99278.84;;;5.29;58.51
22743;BME280;11538;48.884;8.696;2023-03-01T09:31:24;99282.13;;;5.09;58.65
22743;BME280;11538;48.884;8.696;2023-03-01T09:33:53;99276.34;;;5.00;59.32
22743;BME280;11538;48.884;8.696;2023-03-01T09:36:24;99273.22;;;5.08;58.80
22743;BME280;11538;48.884;8.696;2023-03-01T09:38:57;99269.28;;;5.16;58.64
22743;BME280;11538;48.884;8.696;2023-03-01T09:42:01;99262.31;;;5.43;57.83
22743;BME280;11538;48.884;8.696;2023-03-01T09:44:44;99264.19;;;5.69;57.51
22743;BME280;11538;48.884;8.696;2023-03-01T09:47:22;99260.91;;;5.62;56.95
22743;BME280;11538;48.884;8.696;2023-03-01T09:50:19;99253.84;;;5.89;56.97
22743;BME280;11538;48.884;8.696;2023-03-01T09:53:13;99253.53;;;6.12;55.96
22743;BME280;11538;48.884;8.696;2023-03-01T10:01:34;99248.47;;;6.21;54.92
22743;BME280;11538;48.884;8.696;2023-03-01T10:09:43;99252.19;;;6.58;53.62
22743;BME280;11538;48.884;8.696;2023-03-01T10:12:19;99244.94;;;6.64;54.30
22743;BME280;11538;48.884;8.696;2023-03-01T10:15:10;99239.81;;;6.67;53.07
22743;BME280;11538;48.884;8.696;2023-03-01T10:18:04;99231.03;;;6.87;53.13
22743;BME280;11538;48.884;8.696;2023-03-01T10:20:53;99232.69;;;6.99;52.65
22743;BME280;11538;48.884;8.696;2023-03-01T10:23:23;99231.56;;;6.84;52.63
22743;BME280;11538;48.884;8.696;2023-03-01T10:26:37;99223.75;;;6.98;52.62
22743;BME280;11538;48.884;8.696;2023-03-01T10:29:11;99227.88;;;7.22;52.59
22743;BME280;11538;48.884;8.696;2023-03-01T10:31:42;99221.69;;;7.26;52.50
22743;BME280;11538;48.884;8.696;2023-03-01T10:34:13;99220.31;;;7.19;51.69
22743;BME280;11538;48.884;8.696;2023-03-01T10:36:43;99215.72;;;7.24;51.70
22743;BME280;11538;48.884;8.696;2023-03-01T10:39:16;99216.88;;;7.39;50.73
22743;BME280;11538;48.884;8.696;2023-03-01T10:41:57;99207.72;;;7.60;50.31
22743;BME280;11538;48.884;8.696;2023-03-01T10:44:39;99206.63;;;7.93;49.99
22743;BME280;11538;48.884;8.696;2023-03-01T10:47:25;99211.41;;;8.27;49.74
22743;BME280;11538;48.884;8.696;2023-03-01T10:49:56;99208.47;;;8.23;48.22
22743;BME280;11538;48.884;8.696;2023-03-01T10:53:04;99212.19;;;8.43;47.42
22743;BME280;11538;48.884;8.696;2023-03-01T10:55:37;99197.88;;;8.37;47.52
22743;BME280;11538;48.884;8.696;2023-03-01T10:58:21;99204.06;;;8.48;47.74
22743;BME280;11538;48.884;8.696;2023-03-01T11:03:44;99190.50;;;8.74;46.99
22743;BME280;11538;48.884;8.696;2023-03-01T11:08:46;99189.63;;;8.89;45.70
22743;BME280;11538;48.884;8.696;2023-03-01T11:11:32;99176.28;;;9.03;45.71
22743;BME280;11538;48.884;8.696;2023-03-01T11:14:17;99170.34;;;9.41;45.05
22743;BME280;11538;48.884;8.696;2023-03-01T11:17:13;99166.25;;;9.48;45.03
22743;BME280;11538;48.884;8.696;2023-03-01T11:19:42;99163.09;;;9.65;44.11
22743;BME280;11538;48.884;8.696;2023-03-01T11:22:20;99161.31;;;9.85;43.98
22743;BME280;11538;48.884;8.696;2023-03-01T11:24:54;99152.84;;;9.92;43.67
22743;BME280;11538;48.884;8.696;2023-03-01T11:27:43;99147.47;;;10.41;44.30
22743;BME280;11538;48.884;8.696;2023-03-01T11:33:03;99128.63;;;10.74;41.87
22743;BME280;11538;48.884;8.696;2023-03-01T11:35:32;99127.38;;;10.85;41.74
22743;BME280;11538;48.884;8.696;2023-03-01T11:38:23;99132.88;;;10.99;41.46
22743;BME280;11538;48.884;8.696;2023-03-01T11:41:36;99135.44;;;11.29;40.66
22743;BME280;11538;48.884;8.696;2023-03-01T11:44:17;99136.16;;;11.67;39.77
22743;BME280;11538;48.884;8.696;2023-03-01T11:50:09;99134.00;;;11.97;39.10
22743;BME280;11538;48.884;8.696;2023-03-01T11:55:58;99124.69;;;12.32;38.60
22743;BME280;11538;48.884;8.696;2023-03-01T12:02:17;99115.09;;;12.62;37.96
22743;BME280;11538;48.884;8.696;2023-03-01T12:05:23;99109.63;;;12.62;38.18
22743;BME280;11538;48.884;8.696;2023-03-01T12:08:46;99099.75;;;12.66;37.94
22743;BME280;11538;48.884;8.696;2023-03-01T12:11:41;99081.47;;;12.81;37.32
22743;BME280;11538;48.884;8.696;2023-03-01T12:26:23;99053.84;;;13.65;36.34
22743;BME280;11538;48.884;8.696;2023-03-01T12:41:44;99044.72;;;14.10;34.67
22743;BME280;11538;48.884;8.696;2023-03-01T12:44:57;99039.66;;;14.35;34.60
22743;BME280;11538;48.884;8.696;2023-03-01T12:48:02;99038.22;;;14.63;34.22
22743;BME280;11538;48.884;8.696;2023-03-01T12:50:47;99041.59;;;14.60;34.50
22743;BME280;11538;48.884;8.696;2023-03-01T12:53:27;99022.19;;;14.97;33.55
22743;BME280;11538;48.884;8.696;2023-03-01T12:56:02;99030.41;;;14.80;33.39
22743;BME280;11538;48.884;8.696;2023-03-01T13:04:31;99024.19;;;14.12;35.01
22743;BME280;11538;48.884;8.696;2023-03-01T13:07:33;99018.63;;;14.44;34.47
22743;BME280;11538;48.884;8.696;2023-03-01T13:13:18;99017.38;;;14.85;33.51
22743;BME280;11538;48.884;8.696;2023-03-01T13:15:46;99014.94;;;14.40;34.09
22743;BME280;11538;48.884;8.696;2023-03-01T13:26:16;98994.38;;;14.42;34.49
22743;BME280;11538;48.884;8.696;2023-03-01T13:28:51;98992.44;;;14.52;34.58
22743;BME280;11538;48.884;8.696;2023-03-01T13:34:01;98989.09;;;14.46;34.55
22743;BME280;11538;48.884;8.696;2023-03-01T13:41:55;98974.31;;;14.56;34.53
22743;BME280;11538;48.884;8.696;2023-03-01T13:44:37;98984.25;;;14.34;34.80
22743;BME280;11538;48.884;8.696;2023-03-01T13:49:49;98983.31;;;14.56;34.19
22743;BME280;11538;48.884;8.696;2023-03-01T13:52:55;98986.81;;;14.22;34.77
22743;BME280;11538;48.884;8.696;2023-03-01T13:55:38;98982.16;;;14.13;34.92
22743;BME280;11538;48.884;8.696;2023-03-01T13:58:49;98985.19;;;14.21;34.80
22743;BME280;11538;48.884;8.696;2023-03-01T14:01:32;98984.09;;;14.30;34.61
22743;BME280;11538;48.884;8.696;2023-03-01T14:04:02;98988.25;;;14.28;34.46
22743;BME280;11538;48.884;8.696;2023-03-01T14:06:33;98983.91;;;14.09;34.94
22743;BME280;11538;48.884;8.696;2023-03-01T14:09:18;98984.53;;;13.97;34.89
22743;BME280;11538;48.884;8.696;2023-03-01T14:12:17;98986.63;;;13.51;35.58
22743;BME280;11538;48.884;8.696;2023-03-01T14:15:02;98989.06;;;13.30;35.77
22743;BME280;11538;48.884;8.696;2023-03-01T14:17:59;98983.41;;;13.49;35.72
22743;BME280;11538;48.884;8.696;2023-03-01T14:20:39;98989.63;;;13.18;36.08
22743;BME280;11538;48.884;8.696;2023-03-01T14:23:13;98977.88;;;13.09;36.30
22743;BME280;11538;48.884;8.696;2023-03-01T14:25:51;98964.25;;;12.77;37.03
22743;BME280;11538;48.884;8.696;2023-03-01T14:28:34;98962.94;;;12.52;37.44
22743;BME280;11538;48.884;8.696;2023-03-01T14:31:32;98969.91;;;12.07;38.12
22743;BME280;11538;48.884;8.696;2023-03-01T14:34:24;98970.22;;;11.50;39.26
22743;BME280;11538;48.884;8.696;2023-03-01T14:36:51;98972.88;;;11.08;39.99
22743;BME280;11538;48.884;8.696;2023-03-01T14:39:25;98969.16;;;10.51;40.96
22743;BME280;11538;48.884;8.696;2023-03-01T14:41:53;98965.13;;;10.30;41.57
22743;BME280;11538;48.884;8.696;2023-03-01T14:44:23;98972.19;;;10.06;42.33
22743;BME280;11538;48.884;8.696;2023-03-01T14:46:56;98968.59;;;9.92;42.64
22743;BME280;11538;48.884;8.696;2023-03-01T14:49:30;98967.38;;;9.79;42.99
22743;BME280;11538;48.884;8.696;2023-03-01T14:52:14;98979.09;;;9.74;43.04
22743;BME280;11538;48.884;8.696;2023-03-01T14:54:48;98980.31;;;9.63;43.53
22743;BME280;11538;48.884;8.696;2023-03-01T14:57:25;98978.78;;;9.57;43.62
22743;BME280;11538;48.884;8.696;2023-03-01T14:59:57;98983.16;;;9.53;43.71
22743;BME280;11538;48.884;8.696;2023-03-01T15:02:29;98981.91;;;9.40;44.13
22743;BME280;11538;48.884;8.696;2023-03-01T15:05:01;98981.91;;;9.40;44.46
22743;BME280;11538;48.884;8.696;2023-03-01T15:07:33;98986.06;;;9.32;44.64
22743;BME280;11538;48.884;8.696;2023-03-01T15:10:04;98990.19;;;9.24;44.48